Time;durP1;ratioP1;P1;durP2;ratioP2;P2;SDS_P1;SDS_P2;PMS_P1;PMS_P2;Temp;Humidity;BMP_temperature;BMP_pressure;BME280_temperature;BME280_humidity;BME280_pressure;Samples;Min_cycle;Max_cycle;Signal;HPM_P1;HPM_P2
2023/12/03 00:02:21;;;;;;;0.30;0.20;;;3.20;99.90;;;;;;5092530;28;20232;-77
2023/12/03 00:04:47;;;;;;;0.30;0.30;;;3.20;99.90;;;;;;5091948;28;20674;-77
2023/12/03 00:07:13;;;;;;;0.30;0.20;;;3.20;99.90;;;;;;5092449;28;20681;-71
2023/12/03 00:09:39;;;;;;;0.30;0.30;;;3.20;99.90;;;;;;5090480;28;20199;-72
2023/12/03 00:12:06;;;;;;;0.30;0.27;;;3.30;99.90;;;;;;5092379;28;20177;-77
2023/12/03 00:14:32;;;;;;;0.30;0.30;;;3.30;99.90;;;;;;5091161;28;20912;-72
2023/12/03 00:16:57;;;;;;;0.30;0.30;;;3.30;99.90;;;;;;5090556;28;20246;-72
2023/12/03 00:19:24;;;;;;;0.30;0.30;;;3.30;99.90;;;;;;5092410;28;20417;-77
2023/12/03 00:21:50;;;;;;;0.30;0.30;;;3.30;99.90;;;;;;5091906;28;20255;-78
2023/12/03 00:24:17;;;;;;;0.30;0.30;;;3.30;99.90;;;;;;5091787;28;20270;-77
2023/12/03 00:26:42;;;;;;;0.30;0.30;;;3.30;99.90;;;;;;5090369;28;20227;-77
2023/12/03 00:29:08;;;;;;;0.30;0.30;;;3.30;99.90;;;;;;5090619;28;20446;-77
2023/12/03 00:31:34;;;;;;;0.30;0.30;;;3.30;99.90;;;;;;5091935;28;20176;-77
2023/12/03 00:34:02;;;;;;;0.30;0.20;;;3.40;99.90;;;;;;5091598;28;20433;-72
2023/12/03 00:36:28;;;;;;;0.30;0.30;;;3.40;99.90;;;;;;5089968;28;20184;-74
2023/12/03 00:38:54;;;;;;;0.30;0.20;;;3.40;99.90;;;;;;5091960;28;20276;-77
2023/12/03 00:41:20;;;;;;;0.30;0.30;;;3.30;99.90;;;;;;5089956;28;20696;-77
2023/12/03 00:43:46;;;;;;;0.30;0.30;;;3.30;99.90;;;;;;5091592;28;20968;-77
2023/12/03 00:46:12;;;;;;;0.30;0.30;;;3.30;99.90;;;;;;5091064;28;20177;-71
2023/12/03 00:48:39;;;;;;;0.30;0.30;;;3.30;99.90;;;;;;5091672;28;20449;-72
2023/12/03 00:51:08;;;;;;;0.30;0.30;;;3.30;99.90;;;;;;5089914;28;20416;-77
2023/12/03 00:53:33;;;;;;;0.30;0.30;;;3.30;99.90;;;;;;5091461;28;20200;-77
2023/12/03 00:55:59;;;;;;;0.30;0.30;;;3.30;99.90;;;;;;5091081;28;20225;-77
2023/12/03 00:58:24;;;;;;;0.30;0.20;;;3.40;99.90;;;;;;5091255;28;20215;-72
2023/12/03 01:00:50;;;;;;;0.30;0.30;;;3.40;99.90;;;;;;5091200;28;20198;-78
2023/12/03 01:03:16;;;;;;;0.30;0.30;;;3.40;99.90;;;;;;5091239;28;20294;-78
2023/12/03 01:05:42;;;;;;;0.30;0.30;;;3.40;99.90;;;;;;5091223;28;20261;-72
2023/12/03 01:08:07;;;;;;;0.30;0.20;;;3.40;99.90;;;;;;5089658;28;20207;-77
2023/12/03 01:10:33;;;;;;;0.30;0.20;;;3.40;99.90;;;;;;5090606;28;20230;-74
2023/12/03 01:12:58;;;;;;;0.30;0.20;;;3.40;99.90;;;;;;5091052;28;20203;-72
2023/12/03 01:15:24;;;;;;;0.30;0.30;;;3.40;99.90;;;;;;5090672;28;20232;-71
2023/12/03 01:17:50;;;;;;;0.30;0.30;;;3.40;99.90;;;;;;5090198;28;20262;-77
2023/12/03 01:20:16;;;;;;;0.30;0.27;;;3.40;99.90;;;;;;5090407;28;20185;-77
2023/12/03 01:22:42;;;;;;;0.30;0.30;;;3.40;99.90;;;;;;5089447;28;20259;-77
2023/12/03 01:25:08;;;;;;;0.30;0.30;;;3.40;99.90;;;;;;5090576;28;20400;-78
2023/12/03 01:27:33;;;;;;;0.30;0.20;;;3.40;99.90;;;;;;5089424;28;20211;-72
2023/12/03 01:29:59;;;;;;;0.30;0.20;;;3.40;99.90;;;;;;5089123;28;20432;-72
2023/12/03 01:32:25;;;;;;;0.30;0.30;;;3.40;99.90;;;;;;5089660;28;20649;-76
2023/12/03 01:34:50;;;;;;;0.30;0.20;;;3.40;99.90;;;;;;5090133;28;20212;-72
2023/12/03 01:37:18;;;;;;;0.30;0.20;;;3.40;99.90;;;;;;5090055;28;20201;-77
2023/12/03 01:39:44;;;;;;;0.30;0.30;;;3.40;99.90;;;;;;5088604;28;20239;-77
2023/12/03 01:42:10;;;;;;;0.30;0.30;;;3.40;99.90;;;;;;5088862;28;20212;-77
2023/12/03 01:44:35;;;;;;;0.30;0.30;;;3.40;99.90;;;;;;5090292;28;20220;-72
2023/12/03 01:47:03;;;;;;;0.30;0.30;;;3.40;99.90;;;;;;5090774;28;20180;-78
2023/12/03 01:49:30;;;;;;;0.30;0.30;;;3.40;99.90;;;;;;5089012;28;20275;-72
2023/12/03 01:51:57;;;;;;;0.30;0.25;;;3.50;99.90;;;;;;5089040;28;20176;-78
2023/12/03 01:54:27;;;;;;;0.30;0.30;;;3.50;99.90;;;;;;5088739;28;20196;-72
2023/12/03 01:56:54;;;;;;;0.30;0.20;;;3.50;99.90;;;;;;5090172;28;20482;-74
2023/12/03 01:59:21;;;;;;;0.30;0.30;;;3.50;99.90;;;;;;5088735;28;20207;-72
2023/12/03 02:01:47;;;;;;;0.30;0.30;;;3.50;99.90;;;;;;5088927;28;20275;-72
2023/12/03 02:04:13;;;;;;;0.30;0.30;;;3.50;99.90;;;;;;5088576;28;20345;-72
2023/12/03 02:06:39;;;;;;;0.30;0.30;;;3.50;99.90;;;;;;5089102;28;20424;-77
2023/12/03 02:09:04;;;;;;;0.30;0.30;;;3.50;99.90;;;;;;5089978;28;20912;-72
2023/12/03 02:11:30;;;;;;;0.30;0.30;;;3.60;99.90;;;;;;5089350;28;20896;-77
2023/12/03 02:13:57;;;;;;;0.30;0.20;;;3.50;99.90;;;;;;5090320;28;20192;-77
2023/12/03 02:16:22;;;;;;;0.30;0.30;;;3.50;99.90;;;;;;5088045;28;20270;-71
2023/12/03 02:18:48;;;;;;;0.30;0.30;;;3.60;99.90;;;;;;5088756;28;20196;-77
2023/12/03 02:21:14;;;;;;;0.30;0.30;;;3.60;99.90;;;;;;5088364;28;20306;-77
2023/12/03 02:23:39;;;;;;;0.30;0.30;;;3.60;99.90;;;;;;5090119;28;20211;-77
2023/12/03 02:26:06;;;;;;;0.30;0.30;;;3.60;99.90;;;;;;5088641;28;20194;-77
2023/12/03 02:28:32;;;;;;;0.30;0.30;;;3.60;99.90;;;;;;5090056;28;20271;-72
2023/12/03 02:30:58;;;;;;;0.30;0.30;;;3.60;99.90;;;;;;5088170;28;20279;-76
2023/12/03 02:33:23;;;;;;;0.30;0.30;;;3.60;99.90;;;;;;5088377;28;20560;-75
2023/12/03 02:35:49;;;;;;;0.30;0.20;;;3.50;99.90;;;;;;5089478;28;20260;-72
2023/12/03 02:38:15;;;;;;;0.30;0.30;;;3.50;99.90;;;;;;5088326;28;20371;-72
2023/12/03 02:40:41;;;;;;;0.30;0.30;;;3.60;99.90;;;;;;5089454;28;20271;-78
2023/12/03 02:43:06;;;;;;;0.30;0.30;;;3.50;99.90;;;;;;5088178;28;20199;-72
2023/12/03 02:45:32;;;;;;;0.30;0.20;;;3.50;99.90;;;;;;5089645;28;20223;-72
2023/12/03 02:47:58;;;;;;;0.30;0.30;;;3.60;99.90;;;;;;5089622;28;20200;-72
2023/12/03 02:50:24;;;;;;;0.30;0.20;;;3.50;99.90;;;;;;5092419;28;20717;-78
2023/12/03 02:52:50;;;;;;;0.30;0.30;;;3.50;99.90;;;;;;5092446;28;20889;-72
2023/12/03 02:55:15;;;;;;;0.30;0.30;;;3.50;99.90;;;;;;5093464;28;20176;-72
2023/12/03 02:57:41;;;;;;;0.30;0.20;;;3.50;99.90;;;;;;5092323;28;20435;-77
2023/12/03 03:00:07;;;;;;;0.30;0.30;;;3.60;99.90;;;;;;5093451;28;20419;-72
2023/12/03 03:02:33;;;;;;;0.30;0.30;;;3.60;99.90;;;;;;5092198;28;20230;-72
2023/12/03 03:04:58;;;;;;;0.30;0.30;;;3.50;99.90;;;;;;5093587;28;20204;-77
2023/12/03 03:07:24;;;;;;;0.30;0.30;;;3.50;99.90;;;;;;5092003;28;20384;-71
2023/12/03 03:09:50;;;;;;;0.30;0.20;;;3.50;99.90;;;;;;5093118;28;20619;-72
2023/12/03 03:12:15;;;;;;;0.30;0.20;;;3.50;99.90;;;;;;5093150;28;20156;-72
2023/12/03 03:14:41;;;;;;;0.30;0.30;;;3.50;99.90;;;;;;5093038;28;20191;-77
2023/12/03 03:17:07;;;;;;;0.30;0.20;;;3.50;99.90;;;;;;5092956;28;20565;-76
2023/12/03 03:19:33;;;;;;;0.30;0.20;;;3.50;99.90;;;;;;5093071;28;20286;-77
2023/12/03 03:21:58;;;;;;;0.30;0.30;;;3.50;99.90;;;;;;5092579;28;20432;-72
2023/12/03 03:24:24;;;;;;;0.30;0.30;;;3.50;99.90;;;;;;5092870;28;20231;-77
2023/12/03 03:26:50;;;;;;;0.30;0.20;;;3.50;99.90;;;;;;5093576;28;20252;-72
2023/12/03 03:29:16;;;;;;;0.30;0.30;;;3.50;99.90;;;;;;5092856;28;20461;-72
2023/12/03 03:31:42;;;;;;;0.30;0.30;;;3.50;99.90;;;;;;5093354;28;20176;-72
2023/12/03 03:34:08;;;;;;;0.30;0.30;;;3.50;99.90;;;;;;5091545;28;20200;-72
2023/12/03 03:36:33;;;;;;;0.30;0.30;;;3.40;99.90;;;;;;5091243;28;20258;-76
2023/12/03 03:38:59;;;;;;;0.30;0.30;;;3.50;99.90;;;;;;5091435;28;20646;-72
2023/12/03 03:41:25;;;;;;;0.30;0.30;;;3.50;99.90;;;;;;5092924;28;20176;-72
2023/12/03 03:43:50;;;;;;;0.30;0.30;;;3.50;99.90;;;;;;5091534;28;20291;-78
2023/12/03 03:46:16;;;;;;;0.30;0.20;;;3.50;99.90;;;;;;5092649;28;20282;-72
2023/12/03 03:48:42;;;;;;;0.30;0.30;;;3.40;99.90;;;;;;5092988;28;20402;-72
2023/12/03 03:51:08;;;;;;;0.30;0.30;;;3.40;99.90;;;;;;5092611;28;20177;-72
2023/12/03 03:53:34;;;;;;;0.30;0.30;;;3.40;99.90;;;;;;5091121;28;20196;-71
2023/12/03 03:56:06;;;;;;;0.30;0.30;;;3.40;99.90;;;;;;5091223;28;20185;-72
2023/12/03 03:58:32;;;;;;;0.30;0.20;;;3.40;99.90;;;;;;5091253;28;20300;-77
2023/12/03 04:00:58;;;;;;;0.30;0.30;;;3.40;99.90;;;;;;5091695;28;20172;-78
2023/12/03 04:03:23;;;;;;;0.30;0.20;;;3.40;99.90;;;;;;5091575;28;20208;-72
2023/12/03 04:05:49;;;;;;;0.30;0.20;;;3.40;99.90;;;;;;5092325;28;20172;-76
2023/12/03 04:08:14;;;;;;;0.30;0.20;;;3.40;99.90;;;;;;5090716;28;20192;-72
2023/12/03 04:10:40;;;;;;;0.30;0.30;;;3.40;99.90;;;;;;5092312;28;20191;-77
2023/12/03 04:13:06;;;;;;;0.30;0.30;;;3.40;99.90;;;;;;5092047;28;20780;-72
2023/12/03 04:15:31;;;;;;;0.30;0.30;;;3.40;99.90;;;;;;5092179;28;20500;-77
2023/12/03 04:17:57;;;;;;;0.30;0.30;;;3.40;99.90;;;;;;5091941;28;20231;-77
2023/12/03 04:20:23;;;;;;;0.30;0.20;;;3.30;99.90;;;;;;5091428;28;20188;-78
2023/12/03 04:22:49;;;;;;;0.30;0.30;;;3.30;99.90;;;;;;5091558;28;20183;-72
2023/12/03 04:25:14;;;;;;;0.30;0.30;;;3.30;99.90;;;;;;5091683;28;20234;-77
2023/12/03 04:27:41;;;;;;;0.30;0.30;;;3.30;99.90;;;;;;5090485;28;20176;-77
2023/12/03 04:30:08;;;;;;;0.30;0.30;;;3.30;99.90;;;;;;5090565;28;20189;-77
2023/12/03 04:32:34;;;;;;;0.30;0.30;;;3.30;99.90;;;;;;5090403;28;20561;-76
2023/12/03 04:34:59;;;;;;;0.30;0.20;;;3.30;99.90;;;;;;5090148;28;20198;-77
2023/12/03 04:37:25;;;;;;;0.30;0.30;;;3.20;99.90;;;;;;5091399;28;20230;-77
2023/12/03 04:39:51;;;;;;;0.30;0.20;;;3.20;99.90;;;;;;5091417;28;20195;-72
2023/12/03 04:42:17;;;;;;;0.30;0.20;;;3.20;99.90;;;;;;5091491;28;20568;-77
2023/12/03 04:44:43;;;;;;;0.30;0.20;;;3.20;99.90;;;;;;5092034;28;20241;-73
2023/12/03 04:47:08;;;;;;;0.30;0.20;;;3.10;99.90;;;;;;5092114;28;20328;-72
2023/12/03 04:49:34;;;;;;;0.30;0.30;;;3.10;99.90;;;;;;5091238;28;20694;-76
2023/12/03 04:52:00;;;;;;;0.30;0.30;;;3.10;99.90;;;;;;5089914;28;20199;-77
2023/12/03 04:54:25;;;;;;;0.30;0.30;;;3.10;99.90;;;;;;5090002;28;20677;-78
2023/12/03 04:56:51;;;;;;;0.30;0.30;;;3.00;99.90;;;;;;5090077;28;21006;-72
2023/12/03 04:59:17;;;;;;;0.30;0.30;;;3.00;99.90;;;;;;5091159;28;20226;-77
2023/12/03 05:01:42;;;;;;;0.30;0.30;;;3.00;99.90;;;;;;5091670;28;20240;-77
2023/12/03 05:04:08;;;;;;;0.30;0.23;;;2.90;99.90;;;;;;5090036;28;20193;-72
2023/12/03 05:06:34;;;;;;;0.30;0.30;;;2.90;99.90;;;;;;5091302;28;20173;-72
2023/12/03 05:08:59;;;;;;;0.30;0.30;;;2.90;99.90;;;;;;5089898;28;20223;-71
2023/12/03 05:11:25;;;;;;;0.30;0.30;;;2.80;99.90;;;;;;5089726;28;20180;-78
2023/12/03 05:13:50;;;;;;;0.30;0.30;;;2.80;99.90;;;;;;5091007;28;20193;-71
2023/12/03 05:16:16;;;;;;;0.30;0.20;;;2.80;99.90;;;;;;5089185;28;20258;-72
2023/12/03 05:18:41;;;;;;;0.30;0.30;;;2.70;99.90;;;;;;5090979;28;20219;-72
2023/12/03 05:21:07;;;;;;;0.30;0.20;;;2.70;99.90;;;;;;5091112;28;20242;-77
2023/12/03 05:23:33;;;;;;;0.30;0.30;;;2.70;99.90;;;;;;5090128;28;20287;-76
2023/12/03 05:26:00;;;;;;;0.30;0.30;;;2.70;99.90;;;;;;5089334;28;20611;-77
2023/12/03 05:28:25;;;;;;;0.30;0.30;;;2.70;99.90;;;;;;5089339;28;20414;-72
2023/12/03 05:30:51;;;;;;;0.30;0.30;;;2.70;99.90;;;;;;5090470;28;20255;-72
2023/12/03 05:33:17;;;;;;;0.30;0.30;;;2.70;99.90;;;;;;5090640;28;20188;-77
2023/12/03 05:35:42;;;;;;;0.30;0.30;;;2.70;99.90;;;;;;5090592;28;20234;-71
2023/12/03 05:38:08;;;;;;;0.30;0.30;;;2.70;99.90;;;;;;5088864;28;20469;-71
2023/12/03 05:40:34;;;;;;;0.30;0.30;;;2.70;99.90;;;;;;5089097;28;20249;-77
2023/12/03 05:43:00;;;;;;;0.30;0.30;;;2.70;99.90;;;;;;5090326;28;20260;-77
2023/12/03 05:45:26;;;;;;;0.30;0.30;;;2.70;99.90;;;;;;5090372;28;20616;-77
2023/12/03 05:47:52;;;;;;;0.30;0.30;;;2.70;99.90;;;;;;5090361;28;20200;-77
2023/12/03 05:50:17;;;;;;;0.30;0.30;;;2.70;99.90;;;;;;5088724;28;20403;-72
2023/12/03 05:52:43;;;;;;;0.30;0.30;;;2.70;99.90;;;;;;5088783;28;20210;-77
2023/12/03 05:55:09;;;;;;;0.30;0.30;;;2.70;99.90;;;;;;5088730;28;20184;-72
2023/12/03 05:57:34;;;;;;;0.30;0.30;;;2.70;99.90;;;;;;5088685;28;20215;-77
2023/12/03 06:00:00;;;;;;;0.30;0.30;;;2.70;99.90;;;;;;5088677;28;20527;-77
2023/12/03 06:02:26;;;;;;;0.30;0.30;;;2.70;99.90;;;;;;5088875;28;20268;-74
2023/12/03 06:04:51;;;;;;;0.30;0.30;;;2.70;99.90;;;;;;5089912;28;20217;-71
2023/12/03 06:07:17;;;;;;;0.30;0.30;;;2.70;99.90;;;;;;5090499;28;20176;-77
2023/12/03 06:09:43;;;;;;;0.30;0.30;;;2.70;99.90;;;;;;5089860;28;20597;-77
2023/12/03 06:12:09;;;;;;;0.30;0.30;;;2.70;99.90;;;;;;5089747;28;20173;-77
2023/12/03 06:14:35;;;;;;;0.30;0.30;;;2.70;99.90;;;;;;5089738;28;20665;-77
2023/12/03 06:17:01;;;;;;;0.30;0.30;;;2.70;99.90;;;;;;5089794;28;20338;-72
2023/12/03 06:19:26;;;;;;;0.30;0.30;;;2.70;99.90;;;;;;5087753;28;20192;-77
2023/12/03 06:21:52;;;;;;;0.30;0.30;;;2.70;99.90;;;;;;5090287;28;20176;-77
2023/12/03 06:24:18;;;;;;;0.30;0.30;;;2.70;99.90;;;;;;5088585;28;20184;-78
2023/12/03 06:26:44;;;;;;;0.30;0.30;;;2.70;99.90;;;;;;5088326;28;20184;-77
2023/12/03 06:29:09;;;;;;;0.30;0.30;;;2.60;99.90;;;;;;5088476;28;20291;-77
2023/12/03 06:31:35;;;;;;;0.30;0.30;;;2.60;99.90;;;;;;5088399;28;20634;-78
2023/12/03 06:34:01;;;;;;;0.30;0.30;;;2.60;99.90;;;;;;5090181;28;20551;-77
2023/12/03 06:36:27;;;;;;;0.30;0.30;;;2.60;99.90;;;;;;5089291;28;20637;-77
2023/12/03 06:38:53;;;;;;;0.30;0.30;;;2.60;99.90;;;;;;5089583;28;20200;-71
2023/12/03 06:41:18;;;;;;;0.30;0.30;;;2.60;99.90;;;;;;5089671;28;20978;-77
2023/12/03 06:43:44;;;;;;;0.30;0.30;;;2.60;99.90;;;;;;5088375;28;20212;-77
2023/12/03 06:46:10;;;;;;;0.30;0.30;;;2.60;99.90;;;;;;5089792;28;20530;-72
2023/12/03 06:48:36;;;;;;;0.30;0.30;;;2.50;99.90;;;;;;5090123;28;21108;-72
2023/12/03 06:51:01;;;;;;;0.30;0.30;;;2.50;99.90;;;;;;5088115;28;20188;-77
2023/12/03 06:53:27;;;;;;;0.30;0.30;;;2.50;99.90;;;;;;5089483;28;20299;-71
2023/12/03 06:55:52;;;;;;;0.30;0.30;;;2.50;99.90;;;;;;5089237;28;20180;-72
2023/12/03 06:58:18;;;;;;;0.30;0.30;;;2.50;99.90;;;;;;5089593;28;20239;-71
2023/12/03 07:00:44;;;;;;;0.30;0.30;;;2.50;99.90;;;;;;5089451;28;20226;-72
2023/12/03 07:03:09;;;;;;;0.30;0.30;;;2.50;99.90;;;;;;5089696;28;20200;-77
2023/12/03 07:05:35;;;;;;;0.30;0.30;;;2.60;99.90;;;;;;5089307;28;20173;-78
2023/12/03 07:08:01;;;;;;;0.30;0.30;;;2.60;99.90;;;;;;5087937;28;20208;-77
2023/12/03 07:10:27;;;;;;;0.30;0.30;;;2.70;99.90;;;;;;5089369;28;20179;-72
2023/12/03 07:12:52;;;;;;;0.30;0.30;;;2.70;99.90;;;;;;5087947;28;20417;-72
2023/12/03 07:15:19;;;;;;;0.30;0.30;;;2.80;99.90;;;;;;5088488;28;20319;-77
2023/12/03 07:17:44;;;;;;;0.30;0.30;;;2.80;99.90;;;;;;5088692;28;20291;-72
2023/12/03 07:20:10;;;;;;;0.30;0.30;;;3.00;99.90;;;;;;5089304;28;20286;-77
2023/12/03 07:22:37;;;;;;;0.30;0.30;;;3.10;99.90;;;;;;5089356;28;20176;-77
2023/12/03 07:25:03;;;;;;;0.30;0.30;;;3.30;99.90;;;;;;5088150;28;20423;-73
2023/12/03 07:27:29;;;;;;;0.30;0.30;;;3.50;99.90;;;;;;5088001;28;20629;-77
2023/12/03 07:29:55;;;;;;;0.30;0.30;;;3.70;99.90;;;;;;5089285;28;20409;-77
2023/12/03 07:32:25;;;;;;;0.30;0.30;;;3.80;99.90;;;;;;5089450;28;20200;-77
2023/12/03 07:34:50;;;;;;;0.30;0.28;;;4.00;99.90;;;;;;5088635;28;20236;-72
2023/12/03 07:37:16;;;;;;;0.30;0.30;;;4.00;99.90;;;;;;5091771;28;20317;-77
2023/12/03 07:39:42;;;;;;;0.30;0.30;;;4.10;99.90;;;;;;5092490;28;20453;-77
2023/12/03 07:42:07;;;;;;;0.30;0.20;;;4.30;99.90;;;;;;5092928;28;20759;-73
2023/12/03 07:44:33;;;;;;;0.30;0.20;;;4.60;99.90;;;;;;5092594;28;20283;-72
2023/12/03 07:47:00;;;;;;;0.30;0.20;;;4.70;99.90;;;;;;5091044;28;20184;-77
2023/12/03 07:49:25;;;;;;;0.30;0.30;;;4.60;99.90;;;;;;5090620;28;20421;-77
2023/12/03 07:51:51;;;;;;;0.30;0.30;;;4.50;99.90;;;;;;5090825;28;20661;-77
2023/12/03 07:54:17;;;;;;;0.30;0.30;;;4.50;99.90;;;;;;5090323;28;20199;-72
2023/12/03 07:56:43;;;;;;;0.30;0.20;;;4.40;99.90;;;;;;5088931;28;20579;-71
2023/12/03 07:59:09;;;;;;;0.30;0.20;;;4.20;99.90;;;;;;5088945;28;20208;-77
2023/12/03 08:01:35;;;;;;;0.30;0.20;;;4.10;99.90;;;;;;5090652;28;20192;-72
2023/12/03 08:04:03;;;;;;;0.30;0.30;;;4.20;99.90;;;;;;5091573;28;20224;-77
2023/12/03 08:06:29;;;;;;;0.30;0.22;;;4.10;99.90;;;;;;5092254;28;20237;-76
2023/12/03 08:08:57;;;;;;;0.30;0.30;;;4.10;99.90;;;;;;5092000;28;20581;-72
2023/12/03 08:11:22;;;;;;;0.30;0.30;;;4.10;99.90;;;;;;5090280;28;20579;-77
2023/12/03 08:13:48;;;;;;;0.30;0.20;;;4.00;99.90;;;;;;5090307;28;20192;-77
2023/12/03 08:16:14;;;;;;;0.30;0.20;;;3.90;99.90;;;;;;5089483;28;20737;-77
2023/12/03 08:18:39;;;;;;;0.30;0.20;;;3.80;99.90;;;;;;5090395;28;20355;-77
2023/12/03 08:21:06;;;;;;;0.30;0.20;;;3.70;99.90;;;;;;5090226;28;20180;-72
2023/12/03 08:23:32;;;;;;;0.30;0.20;;;3.60;99.90;;;;;;5090128;28;20259;-77
2023/12/03 08:26:00;;;;;;;0.30;0.30;;;3.60;99.90;;;;;;5089050;28;20267;-76
2023/12/03 08:28:25;;;;;;;0.30;0.20;;;3.50;99.90;;;;;;5070006;28;20209;-77
2023/12/03 08:30:51;;;;;;;0.30;0.30;;;3.50;99.90;;;;;;5086297;28;20199;-77
2023/12/03 08:33:20;;;;;;;0.30;0.30;;;3.50;99.90;;;;;;5090388;28;20605;-79
2023/12/03 08:35:47;;;;;;;0.30;0.20;;;3.50;99.90;;;;;;5089863;28;20586;-73
2023/12/03 08:38:12;;;;;;;0.30;0.28;;;3.40;99.90;;;;;;5090339;28;20463;-73
2023/12/03 08:40:41;;;;;;;0.30;0.20;;;3.40;99.90;;;;;;5087030;28;20188;-79
2023/12/03 08:43:07;;;;;;;0.30;0.30;;;3.40;99.90;;;;;;5086850;28;20291;-73
2023/12/03 08:45:33;;;;;;;0.30;0.30;;;3.40;99.90;;;;;;5088022;28;20188;-78
2023/12/03 08:48:02;;;;;;;0.30;0.30;;;3.70;99.90;;;;;;5072280;28;20205;-79
2023/12/03 08:50:31;;;;;;;0.30;0.30;;;4.30;99.90;;;;;;5089415;28;20521;-74
2023/12/03 08:52:58;;;;;;;0.30;0.30;;;5.20;99.90;;;;;;5091191;28;20224;-74
2023/12/03 08:55:24;;;;;;;0.30;0.25;;;6.20;99.90;;;;;;5090963;28;20237;-78
2023/12/03 08:57:50;;;;;;;0.30;0.30;;;6.60;99.90;;;;;;5089821;28;20534;-74
2023/12/03 09:00:16;;;;;;;0.30;0.30;;;6.60;99.90;;;;;;5090741;28;20219;-79
2023/12/03 09:02:46;;;;;;;0.40;0.30;;;6.50;99.90;;;;;;5090373;28;20583;-78
2023/12/03 09:05:13;;;;;;;0.30;0.30;;;6.40;99.90;;;;;;5091130;28;20195;-78
2023/12/03 09:07:39;;;;;;;0.30;0.30;;;6.40;99.90;;;;;;5091256;28;20176;-78
2023/12/03 09:10:06;;;;;;;0.30;0.30;;;6.20;99.90;;;;;;5089502;28;20682;-78
2023/12/03 09:12:31;;;;;;;0.30;0.20;;;6.20;99.90;;;;;;5089653;28;20177;-78
2023/12/03 09:14:57;;;;;;;0.30;0.20;;;6.10;99.90;;;;;;5090242;28;20822;-74
2023/12/03 09:17:23;;;;;;;0.30;0.30;;;5.90;99.90;;;;;;5090753;28;20212;-79
2023/12/03 09:19:49;;;;;;;0.30;0.30;;;5.90;99.90;;;;;;5090661;28;20196;-74
2023/12/03 09:22:15;;;;;;;0.30;0.30;;;5.90;99.90;;;;;;5090903;28;20237;-78
2023/12/03 09:24:41;;;;;;;0.30;0.30;;;6.20;99.90;;;;;;5088914;28;20456;-79
2023/12/03 09:27:07;;;;;;;0.40;0.40;;;6.80;99.90;;;;;;5087428;28;20176;-78
2023/12/03 09:29:33;;;;;;;0.30;0.30;;;7.50;99.90;;;;;;5105984;28;20252;-74
2023/12/03 09:31:58;;;;;;;0.40;0.30;;;8.30;99.90;;;;;;5106421;28;20455;-79
2023/12/03 09:34:24;;;;;;;2.60;2.40;;;8.90;99.90;;;;;;5089939;28;20188;-78
2023/12/03 09:36:50;;;;;;;2.13;2.03;;;9.60;99.90;;;;;;5090083;28;20256;-75
2023/12/03 09:39:16;;;;;;;0.40;0.30;;;10.20;99.90;;;;;;5090258;28;20199;-79
2023/12/03 09:41:48;;;;;;;0.40;0.30;;;10.40;99.90;;;;;;5105901;28;20267;-79
2023/12/03 09:44:39;;;;;;;0.50;0.50;;;10.60;99.90;;;;;;5086993;28;20287;-74
2023/12/03 09:47:06;;;;;;;0.30;0.30;;;10.70;99.60;;;;;;5083876;28;20192;-74
2023/12/03 09:49:32;;;;;;;0.40;0.30;;;10.80;98.60;;;;;;5083713;28;20374;-74
2023/12/03 09:52:02;;;;;;;0.50;0.50;;;10.70;98.10;;;;;;5089199;28;20536;-78
2023/12/03 09:54:31;;;;;;;0.40;0.20;;;10.50;98.60;;;;;;5086719;28;20299;-74
2023/12/03 09:56:59;;;;;;;0.63;0.63;;;10.40;98.40;;;;;;5088688;28;20303;-79
2023/12/03 09:59:27;;;;;;;0.30;0.20;;;10.20;97.90;;;;;;5088800;28;20472;-74
2023/12/03 10:01:55;;;;;;;0.30;0.20;;;10.00;97.80;;;;;;5090340;28;20177;-74
2023/12/03 10:04:20;;;;;;;0.30;0.30;;;9.70;98.00;;;;;;5088372;28;20203;-74
2023/12/03 10:06:48;;;;;;;0.30;0.30;;;9.20;98.10;;;;;;5090285;28;20173;-78
2023/12/03 10:09:14;;;;;;;0.30;0.30;;;8.80;98.20;;;;;;5088544;28;20542;-74
2023/12/03 10:11:43;;;;;;;0.30;0.20;;;8.50;98.60;;;;;;5090214;28;20347;-78
2023/12/03 10:14:10;;;;;;;0.30;0.20;;;8.20;98.70;;;;;;5088606;28;20661;-79
2023/12/03 10:16:35;;;;;;;0.30;0.30;;;7.90;99.20;;;;;;5088057;28;20224;-78
2023/12/03 10:19:02;;;;;;;0.47;0.45;;;7.80;99.80;;;;;;5072175;28;20689;-74
2023/12/03 10:21:28;;;;;;;0.60;0.60;;;7.70;99.90;;;;;;5090028;28;20218;-79
2023/12/03 10:23:59;;;;;;;0.30;0.20;;;7.80;99.90;;;;;;5088456;28;20253;-74
2023/12/03 10:26:24;;;;;;;0.30;0.20;;;7.90;99.90;;;;;;5089857;28;20199;-78
2023/12/03 10:28:50;;;;;;;0.30;0.20;;;7.90;99.90;;;;;;5088855;28;20204;-78
2023/12/03 10:31:17;;;;;;;0.30;0.20;;;7.90;99.90;;;;;;5089479;28;20457;-74
2023/12/03 10:33:43;;;;;;;0.30;0.20;;;7.90;99.90;;;;;;5088429;28;20196;-78
2023/12/03 10:36:09;;;;;;;0.30;0.20;;;7.90;99.90;;;;;;5089345;28;20221;-78
2023/12/03 10:38:40;;;;;;;0.30;0.20;;;7.90;99.90;;;;;;5088239;28;20222;-79
2023/12/03 10:41:10;;;;;;;0.30;0.20;;;7.90;99.90;;;;;;5087999;28;20631;-78
2023/12/03 10:43:37;;;;;;;0.30;0.20;;;7.80;99.90;;;;;;5089065;28;20264;-78
2023/12/03 10:46:10;;;;;;;0.30;0.30;;;7.60;99.90;;;;;;5089263;28;20509;-73
2023/12/03 10:48:38;;;;;;;0.30;0.20;;;7.40;99.90;;;;;;5089681;28;20286;-74
2023/12/03 10:51:07;;;;;;;0.30;0.20;;;7.30;99.90;;;;;;5089375;28;20241;-78
2023/12/03 10:53:33;;;;;;;0.30;0.20;;;7.20;99.90;;;;;;5088766;28;20223;-74
2023/12/03 10:56:03;;;;;;;0.30;0.30;;;7.10;99.90;;;;;;5086656;28;20554;-77
2023/12/03 10:58:33;;;;;;;0.30;0.20;;;6.90;99.90;;;;;;5085523;28;20223;-76
2023/12/03 11:01:04;;;;;;;0.30;0.20;;;6.80;99.90;;;;;;5084455;28;20176;-72
2023/12/03 11:03:54;;;;;;;0.30;0.20;;;6.70;99.90;;;;;;5085271;28;20204;-75
2023/12/03 11:06:22;;;;;;;0.30;0.20;;;6.60;99.90;;;;;;5084991;28;20172;-72
2023/12/03 11:08:51;;;;;;;0.30;0.20;;;6.50;99.90;;;;;;5086363;28;20192;-77
2023/12/03 11:11:18;;;;;;;0.30;0.20;;;6.40;99.90;;;;;;5089169;28;20637;-72
2023/12/03 11:13:44;;;;;;;0.30;0.20;;;6.30;99.90;;;;;;5090304;28;20297;-72
2023/12/03 11:16:12;;;;;;;0.30;0.20;;;6.20;99.90;;;;;;5088071;28;20444;-77
2023/12/03 11:18:43;;;;;;;0.30;0.20;;;6.10;99.90;;;;;;5088367;28;20877;-76
2023/12/03 11:21:18;;;;;;;0.30;0.20;;;6.10;99.90;;;;;;5090290;28;20656;-72
2023/12/03 11:23:50;;;;;;;0.30;0.20;;;6.00;99.90;;;;;;5089978;28;20188;-76
2023/12/03 11:26:16;;;;;;;0.30;0.20;;;6.00;99.90;;;;;;5089262;28;20173;-77
2023/12/03 11:28:55;;;;;;;0.30;0.20;;;6.00;99.90;;;;;;5091139;28;20200;-77
2023/12/03 11:31:23;;;;;;;0.30;0.20;;;6.00;99.90;;;;;;5090538;28;20172;-72
2023/12/03 11:33:57;;;;;;;0.30;0.20;;;6.00;99.90;;;;;;5093106;28;20200;-74
2023/12/03 11:36:45;;;;;;;0.30;0.30;;;5.90;99.90;;;;;;5091385;28;20562;-72
2023/12/03 11:39:11;;;;;;;0.30;0.20;;;6.00;99.90;;;;;;5092911;28;20211;-72
2023/12/03 11:41:37;;;;;;;0.30;0.30;;;6.00;99.90;;;;;;5091305;28;20176;-72
2023/12/03 11:44:22;;;;;;;0.30;0.20;;;6.10;99.90;;;;;;5092877;28;20204;-77
2023/12/03 11:47:09;;;;;;;0.30;0.20;;;6.20;99.90;;;;;;5091407;28;20184;-72
2023/12/03 11:49:39;;;;;;;0.30;0.30;;;6.30;99.90;;;;;;5092506;28;20238;-77
2023/12/03 11:52:06;;;;;;;0.30;0.20;;;6.30;99.90;;;;;;5092859;28;20174;-77
2023/12/03 11:54:38;;;;;;;0.30;0.20;;;6.30;99.90;;;;;;5092556;28;20196;-76
2023/12/03 11:57:15;;;;;;;0.30;0.22;;;6.40;99.90;;;;;;5091096;28;20643;-72
2023/12/03 11:59:42;;;;;;;0.30;0.20;;;6.30;99.90;;;;;;5090763;28;20359;-77
2023/12/03 12:02:08;;;;;;;0.30;0.20;;;6.30;99.90;;;;;;5092616;28;20791;-72
2023/12/03 12:04:34;;;;;;;0.30;0.20;;;6.30;99.90;;;;;;5090910;28;20200;-76
2023/12/03 12:07:15;;;;;;;0.30;0.20;;;6.30;99.90;;;;;;5090858;28;20513;-72
2023/12/03 12:09:40;;;;;;;0.30;0.20;;;6.30;99.90;;;;;;5091058;28;20558;-77
2023/12/03 12:12:06;;;;;;;0.30;0.20;;;6.40;99.90;;;;;;5092543;28;20248;-72
2023/12/03 12:14:32;;;;;;;0.30;0.30;;;6.50;99.90;;;;;;5092082;28;20193;-72
2023/12/03 12:16:57;;;;;;;0.30;0.20;;;6.50;99.90;;;;;;5090817;28;20696;-72
2023/12/03 12:19:23;;;;;;;0.30;0.30;;;6.40;99.90;;;;;;5090567;28;20536;-72
2023/12/03 12:21:56;;;;;;;0.30;0.20;;;6.40;99.90;;;;;;5091842;28;20207;-77
2023/12/03 12:24:23;;;;;;;0.30;0.20;;;6.40;99.90;;;;;;5091743;28;20195;-77
2023/12/03 12:26:50;;;;;;;0.30;0.20;;;6.50;99.90;;;;;;5091145;28;20256;-77
2023/12/03 12:29:16;;;;;;;0.30;0.20;;;6.40;99.90;;;;;;5091697;28;20692;-75
2023/12/03 12:31:42;;;;;;;0.30;0.20;;;6.40;99.90;;;;;;5091944;28;20644;-75
2023/12/03 12:34:10;;;;;;;0.30;0.20;;;6.30;99.90;;;;;;5091598;28;20208;-76
2023/12/03 12:36:36;;;;;;;0.30;0.20;;;6.30;99.90;;;;;;5106860;28;20653;-77
2023/12/03 12:39:01;;;;;;;0.30;0.30;;;6.20;99.90;;;;;;5091619;28;20216;-77
2023/12/03 12:41:37;;;;;;;0.30;0.20;;;6.20;99.90;;;;;;5106558;28;20421;-78
2023/12/03 12:44:04;;;;;;;0.30;0.20;;;6.10;99.90;;;;;;5107094;28;20261;-73
2023/12/03 12:46:31;;;;;;;0.30;0.20;;;6.10;99.90;;;;;;5107209;28;20192;-77
2023/12/03 12:49:15;;;;;;;0.30;0.30;;;6.10;99.90;;;;;;5091752;28;20249;-77
2023/12/03 12:51:41;;;;;;;0.30;0.20;;;6.10;99.90;;;;;;5091541;28;20196;-73
2023/12/03 12:54:07;;;;;;;0.30;0.20;;;6.00;99.90;;;;;;5090169;28;20207;-73
2023/12/03 12:56:33;;;;;;;0.30;0.20;;;6.00;99.90;;;;;;5091352;28;20413;-73